Time;durP1;ratioP1;P1;durP2;ratioP2;P2;SDS_P1;SDS_P2;PMS_P1;PMS_P2;Temp;Humidity;BMP_temperature;BMP_pressure;BME280_temperature;BME280_humidity;BME280_pressure;Samples;Min_cycle;Max_cycle;Signal;HPM_P1;HPM_P2
2022/09/22 00:01:16;;;;;;;;;13.50;12.75;;;;;15.29;45.34;101935.75;5000256;28;45457;-89
2022/09/22 00:04:08;;;;;;;;;12.00;9.50;;;;;15.29;45.84;101929.56;4997315;28;47511;-90
2022/09/22 00:07:20;;;;;;;;;8.00;8.00;;;;;15.30;45.41;101940.16;5004747;28;45677;-90
2022/09/22 00:10:16;;;;;;;;;;;;;;;;;;;;;
2022/09/22 00:12:55;;;;;;;;;;;;;;;;;;;;;
2022/09/22 00:15:32;;;;;;;;;12.50;12.50;;;;;15.08;47.50;101927.88;5006675;28;75190;-90
2022/09/22 00:17:58;;;;;;;;;12.00;11.25;;;;;15.12;47.53;101938.47;5010883;28;45521;-89
2022/09/22 00:20:23;;;;;;;;;16.75;14.25;;;;;15.08;47.67;101939.38;4997734;28;45431;-89
2022/09/22 00:23:00;;;;;;;;;;;;;;;;;;;;;
2022/09/22 00:25:26;;;;;;;;;10.25;10.25;;;;;15.07;48.39;101949.97;5015583;28;74440;-89
2022/09/22 00:27:55;;;;;;;;;13.25;13.25;;;;;14.99;48.54;101935.00;5009352;28;45243;-90
2022/09/22 00:30:51;;;;;;;;;;;;;;;;;;;;;
2022/09/22 00:33:20;;;;;;;;;11.75;10.25;;;;;14.94;48.77;101939.41;5006106;28;72152;-90
2022/09/22 00:36:00;;;;;;;;;14.00;11.50;;;;;14.90;49.06;101935.00;4998759;28;47274;-90
2022/09/22 00:38:30;;;;;;;;;13.75;13.75;;;;;14.91;49.16;101939.41;4990058;28;45517;-90
2022/09/22 00:40:56;;;;;;;;;14.00;14.00;;;;;14.83;49.23;101932.34;5005934;28;45308;-90
2022/09/22 00:43:28;;;;;;;;;12.75;11.00;;;;;14.86;49.21;101941.22;5011186;28;45233;-88
2022/09/22 00:45:59;;;;;;;;;12.75;11.00;;;;;14.78;49.51;101932.34;5006114;28;47189;-89
2022/09/22 00:48:36;;;;;;;;;14.00;13.00;;;;;14.74;49.43;101933.25;5000353;28;45247;-90
2022/09/22 00:51:24;;;;;;;;;11.25;10.00;;;;;14.63;49.90;101925.34;4990626;28;45444;-89
2022/09/22 00:54:02;;;;;;;;;12.50;10.75;;;;;14.65;49.52;101936.81;4997780;28;45372;-89
2022/09/22 00:56:33;;;;;;;;;14.00;12.00;;;;;14.54;49.66;101933.28;5021308;28;47440;-88
2022/09/22 00:59:04;;;;;;;;;11.25;11.00;;;;;14.45;50.00;101925.31;5008486;28;45475;-88
2022/09/22 01:01:47;;;;;;;;;;;;;;;;;;;;;
2022/09/22 01:04:17;;;;;;;;;13.50;12.50;;;;;14.34;49.74;101918.25;5005273;28;71835;-89
2022/09/22 01:06:54;;;;;;;;;;;;;;;;;;;;;
2022/09/22 01:09:25;;;;;;;;;14.00;13.75;;;;;14.38;50.64;101934.13;5004852;28;72923;-89
2022/09/22 01:12:14;;;;;;;;;14.25;12.25;;;;;14.24;50.31;101910.31;4988946;28;45443;-88
2022/09/22 01:14:52;;;;;;;;;14.00;13.00;;;;;14.24;50.49;101908.53;5005551;28;45564;-88
2022/09/22 01:17:31;;;;;;;;;12.75;12.00;;;;;14.16;50.63;101915.59;4991053;28;47374;-88
2022/09/22 01:20:11;;;;;;;;;14.25;13.00;;;;;14.22;50.42;101922.66;4994598;28;45518;-88
2022/09/22 01:23:10;;;;;;;;;14.00;12.50;;;;;14.18;50.73;101926.19;4994111;28;45275;-88
2022/09/22 01:26:26;;;;;;;;;15.00;13.50;;;;;14.01;50.85;101913.84;5004427;28;45481;-88
2022/09/22 01:29:29;;;;;;;;;12.25;9.75;;;;;14.04;51.50;101920.91;4945240;28;47113;-88
2022/09/22 01:32:09;;;;;;;;;15.25;13.25;;;;;13.99;51.12;101918.25;4928966;28;45257;-89
2022/09/22 01:35:10;;;;;;;;;14.00;14.00;;;;;13.98;51.49;101911.19;4995264;28;45451;-88
2022/09/22 01:37:47;;;;;;;;;15.00;12.75;;;;;13.97;51.71;101919.13;4978365;28;45904;-88
2022/09/22 01:40:26;;;;;;;;;14.25;14.00;;;;;13.96;51.35;101912.06;5019038;28;47241;-89
2022/09/22 01:43:10;;;;;;;;;16.50;14.25;;;;;13.85;51.99;101897.06;5007198;28;46042;-88
2022/09/22 01:45:40;;;;;;;;;12.25;11.75;;;;;13.94;52.13;101919.13;4988078;28;45295;-89
2022/09/22 01:48:34;;;;;;;;;10.75;10.75;;;;;13.90;52.12;101911.19;5005770;28;45434;-88
2022/09/22 01:51:06;;;;;;;;;14.25;13.00;;;;;13.80;52.47;101912.03;4996493;28;47329;-89
2022/09/22 01:53:46;;;;;;;;;22.25;16.25;;;;;13.77;52.56;101916.47;5002173;28;45309;-88
2022/09/22 01:56:15;;;;;;;;;15.75;11.50;;;;;13.81;52.24;101920.84;5004596;28;45412;-89
2022/09/22 01:58:52;;;;;;;;;16.75;15.75;;;;;13.72;52.59;101921.72;4988264;28;45496;-88
2022/09/22 02:01:24;;;;;;;;;15.50;15.00;;;;;13.73;52.58;101919.97;5003665;28;46746;-87
2022/09/22 02:03:57;;;;;;;;;14.00;13.50;;;;;13.72;52.61;101926.16;4993755;28;45353;-88
2022/09/22 02:06:34;;;;;;;;;13.25;12.25;;;;;13.70;52.93;101914.66;4987984;28;45556;-88
2022/09/22 02:09:13;;;;;;;;;10.50;10.50;;;;;13.70;53.17;101917.31;4999892;28;45415;-87
2022/09/22 02:11:39;;;;;;;;;11.25;11.00;;;;;13.67;53.19;101907.59;4987774;28;48068;-88
2022/09/22 02:14:06;;;;;;;;;14.75;13.75;;;;;13.63;53.34;101900.53;4987907;28;45201;-88
2022/09/22 02:16:32;;;;;;;;;13.75;13.75;;;;;13.68;53.09;101912.91;4987454;28;45444;-89
2022/09/22 02:19:04;;;;;;;;;14.50;11.75;;;;;13.57;53.42;101893.47;4987419;28;46126;-86
2022/09/22 02:21:30;;;;;;;;;12.75;12.75;;;;;13.61;53.45;101904.94;4987666;28;47016;-88
2022/09/22 02:23:56;;;;;;;;;14.00;14.00;;;;;13.61;53.51;101900.53;5003376;28;45502;-88
2022/09/22 02:26:24;;;;;;;;;12.00;12.00;;;;;13.62;53.25;101907.59;5003029;28;45579;-88
2022/09/22 02:29:06;;;;;;;;;13.50;13.50;;;;;13.52;53.40;101883.75;5006103;28;45509;-88
2022/09/22 02:31:35;;;;;;;;;16.00;11.50;;;;;13.60;53.14;101903.16;4988026;28;48335;-88
2022/09/22 02:34:04;;;;;;;;;14.25;12.25;;;;;13.58;53.43;101900.53;4988618;28;45206;-88
2022/09/22 02:36:46;;;;;;;;;18.75;15.00;;;;;13.59;53.78;101899.66;4999038;28;45197;-88
2022/09/22 02:39:27;;;;;;;;;17.25;14.50;;;;;13.46;53.53;101871.38;5007317;28;45265;-88
2022/09/22 02:41:53;;;;;;;;;13.00;13.00;;;;;13.52;53.73;101895.22;5001264;28;48095;-88
2022/09/22 02:44:30;;;;;;;;;18.50;14.50;;;;;13.51;54.04;101895.22;4990307;28;44806;-89
2022/09/22 02:47:07;;;;;;;;;16.00;14.25;;;;;13.46;53.69;101890.78;4998563;28;45243;-88
2022/09/22 02:49:34;;;;;;;;;11.00;11.00;;;;;13.40;54.02;101882.84;5003936;28;45240;-87
2022/09/22 02:51:59;;;;;;;;;14.75;13.00;;;;;13.37;54.13;101884.59;5004393;28;45565;-88
2022/09/22 02:54:25;;;;;;;;;13.75;12.50;;;;;13.37;54.11;101888.13;4987378;28;45211;-88
2022/09/22 02:56:50;;;;;;;;;14.50;13.25;;;;;13.33;54.31;101894.28;4991825;28;45756;-88
2022/09/22 02:59:16;;;;;;;;;10.50;10.50;;;;;13.19;54.80;101864.22;4995302;28;45872;-88
2022/09/22 03:01:41;;;;;;;;;11.00;11.00;;;;;13.17;54.55;101871.25;4987407;28;47172;-87
2022/09/22 03:04:09;;;;;;;;;15.25;14.00;;;;;13.25;54.99;101891.56;4995298;28;45486;-88
2022/09/22 03:06:37;;;;;;;;;17.50;17.50;;;;;13.21;54.78;101887.16;4999041;28;45340;-88
2022/09/22 03:09:02;;;;;;;;;13.75;13.75;;;;;13.20;54.98;101887.13;4997864;28;45379;-88
2022/09/22 03:11:28;;;;;;;;;11.75;11.00;;;;;13.13;54.81;101880.06;5020753;28;45162;-89
2022/09/22 03:13:59;;;;;;;;;15.00;13.00;;;;;13.03;55.20;101858.00;5011747;28;45255;-87
2022/09/22 03:16:24;;;;;;;;;12.75;12.75;;;;;13.14;55.39;101880.06;4994758;28;45424;-87
2022/09/22 03:18:50;;;;;;;;;15.00;14.00;;;;;13.09;55.64;101868.59;4994441;28;45534;-88
2022/09/22 03:21:15;;;;;;;;;15.75;15.50;;;;;13.06;55.89;101860.66;5003603;28;47981;-88
2022/09/22 03:23:41;;;;;;;;;16.50;13.50;;;;;13.15;55.66;101865.97;4992043;28;45527;-88
2022/09/22 03:26:06;;;;;;;;;15.75;14.00;;;;;13.03;55.85;101848.28;5006743;28;45210;-87
2022/09/22 03:28:32;;;;;;;;;20.00;17.50;;;;;13.10;55.82;101853.63;5006132;28;45644;-87
2022/09/22 03:30:57;;;;;;;;;13.75;13.75;;;;;13.09;55.69;101858.00;4995465;28;47084;-87
2022/09/22 03:33:23;;;;;;;;;16.00;13.25;;;;;13.15;56.12;101873.91;5013171;28;45401;-88
2022/09/22 03:35:48;;;;;;;;;18.50;14.50;;;;;13.12;55.74;101873.00;5019729;28;45353;-89
2022/09/22 03:38:13;;;;;;;;;13.75;13.25;;;;;13.07;55.96;101862.44;5008079;28;45270;-89
2022/09/22 03:40:40;;;;;;;;;14.25;14.25;;;;;13.10;56.21;101875.66;4994930;28;48286;-89
2022/09/22 03:43:05;;;;;;;;;16.50;14.00;;;;;13.05;56.03;101864.19;5006172;28;45508;-89
2022/09/22 03:45:31;;;;;;;;;11.25;10.50;;;;;13.08;55.92;101869.47;5007894;28;45382;-89
2022/09/22 03:48:04;;;;;;;;;14.75;13.50;;;;;13.02;56.09;101858.88;5007384;28;45481;-89
2022/09/22 03:50:29;;;;;;;;;14.75;14.25;;;;;13.06;56.19;101870.34;5006203;28;47183;-89
2022/09/22 03:52:56;;;;;;;;;16.00;16.00;;;;;13.05;56.31;101872.09;5018505;28;45207;-89
2022/09/22 03:55:23;;;;;;;;;13.50;13.50;;;;;13.02;56.11;101861.53;4989661;28;45409;-89
2022/09/22 03:57:48;;;;;;;;;16.25;12.50;;;;;12.99;56.24;101862.41;4991142;28;45555;-89
2022/09/22 04:00:15;;;;;;;;;13.75;13.75;;;;;12.97;56.38;101857.97;4989329;28;47495;-90
2022/09/22 04:02:42;;;;;;;;;18.50;15.50;;;;;12.95;56.04;101850.03;4989351;28;45296;-89
2022/09/22 04:05:08;;;;;;;;;17.75;14.00;;;;;12.92;56.12;101855.31;4989769;28;45249;-89
2022/09/22 04:07:34;;;;;;;;;14.75;11.25;;;;;12.95;56.29;101849.16;5002377;28;45941;-90
2022/09/22 04:10:00;;;;;;;;;13.75;12.50;;;;;12.93;56.05;101848.25;4998595;28;47775;-90
2022/09/22 04:12:26;;;;;;;;;14.25;13.25;;;;;12.91;56.40;101853.56;4989749;28;45310;-89
2022/09/22 04:14:51;;;;;;;;;14.00;14.00;;;;;12.90;56.11;101857.03;5005963;28;45357;-89
2022/09/22 04:17:19;;;;;;;;;12.25;11.75;;;;;12.82;56.37;101842.91;5003298;28;45669;-88
2022/09/22 04:19:45;;;;;;;;;16.75;15.00;;;;;12.83;56.55;101838.50;4997664;28;47963;-89
2022/09/22 04:22:11;;;;;;;;;14.00;14.00;;;;;12.85;56.12;101844.69;5002224;28;45258;-88
2022/09/22 04:24:37;;;;;;;;;13.00;13.00;;;;;12.77;56.05;101834.97;4989280;28;45250;-89
2022/09/22 04:27:03;;;;;;;;;15.00;14.00;;;;;12.83;56.48;101852.63;4993395;28;45289;-88
2022/09/22 04:29:29;;;;;;;;;9.75;9.00;;;;;12.71;56.53;101834.06;5005691;28;46992;-88
2022/09/22 04:31:55;;;;;;;;;14.25;12.50;;;;;12.75;56.54;101843.75;4999506;28;45278;-89
2022/09/22 04:34:23;;;;;;;;;15.25;12.50;;;;;12.71;56.46;101836.72;5005730;28;45301;-88
2022/09/22 04:36:52;;;;;;;;;13.75;12.25;;;;;12.68;56.59;101839.34;5011157;28;45423;-88
2022/09/22 04:39:17;;;;;;;;;16.00;12.00;;;;;12.68;56.40;101837.56;4995813;28;46966;-88
2022/09/22 04:41:43;;;;;;;;;16.00;16.00;;;;;12.73;56.67;101851.69;5016255;28;45387;-89
2022/09/22 04:44:08;;;;;;;;;12.25;11.25;;;;;12.72;56.66;101844.66;5007867;28;45290;-88
2022/09/22 04:46:33;;;;;;;;;15.25;14.00;;;;;12.71;56.90;101840.22;5006456;28;45152;-89
2022/09/22 04:49:02;;;;;;;;;16.75;12.25;;;;;12.70;56.83;101837.59;5000106;28;47208;-88
2022/09/22 04:51:28;;;;;;;;;17.75;16.50;;;;;12.69;56.54;101846.38;4994095;28;45424;-88
2022/09/22 04:53:53;;;;;;;;;17.00;17.00;;;;;12.63;56.44;101830.50;4993562;28;45322;-88
2022/09/22 04:56:22;;;;;;;;;15.75;15.50;;;;;12.67;57.06;101845.47;5006869;28;44846;-89
2022/09/22 04:58:47;;;;;;;;;15.75;15.50;;;;;12.57;57.05;101837.50;5001002;28;47509;-88
2022/09/22 05:01:13;;;;;;;;;16.50;15.50;;;;;12.54;56.72;101826.94;4999059;28;45155;-88
2022/09/22 05:03:39;;;;;;;;;17.75;17.75;;;;;12.61;56.72;101853.38;5003616;28;45175;-89
2022/09/22 05:06:05;;;;;;;;;20.25;16.50;;;;;12.54;56.91;101845.44;4984228;28;45513;-88
2022/09/22 05:08:31;;;;;;;;;19.50;16.75;;;;;12.56;56.92;101850.69;5000314;28;47407;-87
2022/09/22 05:10:56;;;;;;;;;20.25;17.75;;;;;12.51;56.67;101836.56;5001204;28;45382;-84
2022/09/22 05:13:21;;;;;;;;;17.25;16.50;;;;;12.57;56.53;101856.00;5001430;28;45724;-81
2022/09/22 05:15:47;;;;;;;;;17.25;16.25;;;;;12.53;56.92;101854.19;4989201;28;45746;-81
2022/09/22 05:18:13;;;;;;;;;18.50;16.00;;;;;12.55;56.78;101857.75;4986856;28;48388;-80
2022/09/22 05:20:39;;;;;;;;;19.50;17.50;;;;;12.54;57.08;101858.63;4993397;28;45420;-81
2022/09/22 05:23:06;;;;;;;;;19.25;18.00;;;;;12.47;57.14;101855.94;4999274;28;45448;-81
2022/09/22 05:25:32;;;;;;;;;18.50;16.00;;;;;12.46;57.48;101855.06;4993339;28;45257;-83
2022/09/22 05:27:57;;;;;;;;;14.75;13.50;;;;;12.42;57.07;101853.25;4987163;28;47351;-81
2022/09/22 05:30:25;;;;;;;;;14.25;12.75;;;;;12.41;57.45;101859.44;5002319;28;45421;-81
2022/09/22 05:32:50;;;;;;;;;14.75;11.75;;;;;12.42;57.42;101876.16;5005151;28;45558;-81
2022/09/22 05:35:22;;;;;;;;;12.25;11.75;;;;;12.30;57.30;101863.75;5000569;28;45490;-81
2022/09/22 05:37:49;;;;;;;;;16.00;14.25;;;;;12.27;57.30;101867.25;4995546;28;47206;-81
2022/09/22 05:40:15;;;;;;;;;16.25;15.25;;;;;12.26;57.37;101870.75;5000870;28;45316;-83
2022/09/22 05:42:45;;;;;;;;;14.50;14.50;;;;;12.29;57.46;101877.81;5000627;28;45441;-80
2022/09/22 05:45:11;;;;;;;;;17.00;15.75;;;;;12.25;57.71;101879.56;5000719;28;45428;-81
2022/09/22 05:47:39;;;;;;;;;19.50;18.75;;;;;12.18;57.73;101874.22;5000190;28;45525;-79
2022/09/22 05:50:05;;;;;;;;;16.50;16.50;;;;;12.22;57.88;101889.22;4991697;28;45352;-79
2022/09/22 05:52:31;;;;;;;;;17.50;14.75;;;;;12.18;57.49;101882.13;4983517;28;45444;-83
2022/09/22 05:54:56;;;;;;;;;16.75;15.75;;;;;12.20;57.86;101888.31;5003060;28;45423;-84
2022/09/22 05:57:24;;;;;;;;;18.00;16.25;;;;;12.19;57.93;101890.06;5001204;28;45523;-83
2022/09/22 05:59:50;;;;;;;;;14.25;14.25;;;;;12.18;57.78;101888.28;5007760;28;45443;-84
2022/09/22 06:02:15;;;;;;;;;19.25;17.00;;;;;12.17;57.91;101880.38;5005369;28;45282;-83
2022/09/22 06:04:41;;;;;;;;;18.50;16.25;;;;;12.16;58.04;101892.66;5003650;28;45251;-82
2022/09/22 06:07:09;;;;;;;;;17.75;17.75;;;;;12.20;58.14;101893.59;5000803;28;46220;-83
2022/09/22 06:09:35;;;;;;;;;19.50;17.00;;;;;12.23;58.32;101888.34;4990696;28;45354;-83
2022/09/22 06:12:00;;;;;;;;;17.50;17.50;;;;;12.26;57.98;101888.34;5000314;28;45348;-83
2022/09/22 06:14:26;;;;;;;;;16.75;16.75;;;;;12.19;57.97;101868.97;4990987;28;45669;-84
2022/09/22 06:16:52;;;;;;;;;19.25;18.75;;;;;12.26;58.05;101876.03;4999868;28;46105;-84
2022/09/22 06:19:22;;;;;;;;;18.50;17.00;;;;;12.32;58.24;101885.75;4991123;28;45496;-83
2022/09/22 06:21:48;;;;;;;;;19.00;16.25;;;;;12.29;58.27;101880.44;5000384;28;45358;-84
2022/09/22 06:24:14;;;;;;;;;19.25;17.25;;;;;12.33;57.88;101874.34;4989272;28;45422;-83
2022/09/22 06:26:40;;;;;;;;;20.75;17.00;;;;;12.36;58.07;101882.28;5009867;28;47982;-83
2022/09/22 06:29:06;;;;;;;;;17.50;14.75;;;;;12.33;58.07;101875.22;4989905;28;45239;-83
2022/09/22 06:31:31;;;;;;;;;18.50;17.00;;;;;12.28;58.23;101866.38;4991653;28;45491;-84
2022/09/22 06:33:56;;;;;;;;;20.00;18.00;;;;;12.32;58.05;101869.91;4991092;28;45505;-84
2022/09/22 06:36:30;;;;;;;;;20.00;17.50;;;;;12.36;58.43;101884.91;4999820;28;45414;-81
2022/09/22 06:38:57;;;;;;;;;15.00;13.75;;;;;12.32;58.47;101870.81;4991050;28;45298;-81
2022/09/22 06:41:30;;;;;;;;;18.75;18.25;;;;;12.34;58.60;101874.31;4984264;28;45473;-81
2022/09/22 06:43:55;;;;;;;;;18.50;18.00;;;;;12.40;58.14;101877.88;4999551;28;45410;-81
2022/09/22 06:46:26;;;;;;;;;19.50;18.00;;;;;12.45;58.10;101879.69;4994126;28;47400;-81
2022/09/22 06:48:58;;;;;;;;;20.00;17.75;;;;;12.45;58.01;101877.03;4992746;28;45754;-81
2022/09/22 06:51:25;;;;;;;;;16.75;16.25;;;;;12.54;58.10;101881.53;4999795;28;45408;-81
2022/09/22 06:53:53;;;;;;;;;23.00;19.00;;;;;12.58;57.90;101884.19;4985992;28;45476;-80
2022/09/22 06:56:19;;;;;;;;;17.25;17.25;;;;;12.60;57.35;101867.47;4991999;28;47667;-80
2022/09/22 06:58:45;;;;;;;;;17.75;16.75;;;;;12.62;57.37;101861.31;5002665;28;45240;-81
2022/09/22 07:01:11;;;;;;;;;18.25;16.25;;;;;12.72;57.15;101871.06;4999466;28;45339;-82
2022/09/22 07:03:40;;;;;;;;;16.50;16.25;;;;;12.76;57.13;101871.97;4999224;28;46023;-80
2022/09/22 07:06:07;;;;;;;;;19.00;17.50;;;;;12.79;57.10;101870.22;4999531;28;45379;-83
2022/09/22 07:08:34;;;;;;;;;21.00;19.25;;;;;12.79;57.01;101867.56;4986461;28;45303;-84
2022/09/22 07:11:02;;;;;;;;;17.50;17.00;;;;;12.93;56.94;101886.13;4991503;28;45283;-84
2022/09/22 07:13:32;;;;;;;;;21.75;19.50;;;;;12.98;56.74;101872.94;4982427;28;45789;-84
2022/09/22 07:16:06;;;;;;;;;21.25;20.00;;;;;12.97;56.54;101877.34;4998650;28;46572;-83
2022/09/22 07:18:32;;;;;;;;;28.00;25.25;;;;;13.00;56.42;101881.78;4983309;28;45227;-82
2022/09/22 07:21:05;;;;;;;;;21.75;19.75;;;;;13.09;56.60;101878.28;4999243;28;45488;-84
2022/09/22 07:23:34;;;;;;;;;21.75;19.75;;;;;13.09;56.00;101876.50;4983452;28;45437;-83
2022/09/22 07:26:03;;;;;;;;;19.00;17.75;;;;;13.06;55.95;101865.94;4999956;28;47247;-83
2022/09/22 07:28:30;;;;;;;;;17.50;14.25;;;;;13.21;55.92;101875.69;4984888;28;45299;-82
2022/09/22 07:31:04;;;;;;;;;19.00;18.25;;;;;13.24;55.74;101879.22;4994599;28;45276;-84
2022/09/22 07:33:30;;;;;;;;;18.00;16.00;;;;;13.24;55.53;101871.28;4974246;28;45438;-82
2022/09/22 07:36:07;;;;;;;;;14.25;14.25;;;;;13.29;55.59;101873.13;4986394;28;47043;-83
2022/09/22 07:38:35;;;;;;;;;19.00;16.25;;;;;13.36;55.34;101869.59;4992245;28;45621;-84
2022/09/22 07:41:07;;;;;;;;;15.00;14.50;;;;;13.43;55.16;101871.38;4994286;28;45247;-83
2022/09/22 07:43:33;;;;;;;;;21.25;20.00;;;;;13.47;55.31;101873.13;4989104;28;46270;-87
2022/09/22 07:45:59;;;;;;;;;18.50;18.50;;;;;13.58;55.32;101881.09;4984527;28;48663;-84
2022/09/22 07:48:36;;;;;;;;;23.50;20.75;;;;;13.58;55.19;101867.88;4990527;28;45206;-85
2022/09/22 07:51:09;;;;;;;;;21.50;20.00;;;;;13.66;55.27;101867.03;4997997;28;45507;-85
2022/09/22 07:53:36;;;;;;;;;23.25;21.00;;;;;13.79;55.86;101877.63;5002582;28;45403;-86
2022/09/22 07:56:15;;;;;;;;;22.25;21.00;;;;;13.84;55.58;101882.03;4984911;28;47421;-87
2022/09/22 07:58:46;;;;;;;;;31.75;29.00;;;;;13.86;55.85;101866.16;5000424;28;45627;-86
2022/09/22 08:01:12;;;;;;;;;28.25;27.75;;;;;13.96;55.79;101867.06;4991423;28;45493;-85
2022/09/22 08:03:38;;;;;;;;;24.75;23.00;;;;;14.03;55.30;101859.13;4987966;28;45390;-87
2022/09/22 08:06:10;;;;;;;;;61.25;48.00;;;;;14.16;55.45;101877.66;5004374;28;47736;-87
2022/09/22 08:08:45;;;;;;;;;29.00;28.50;;;;;14.23;55.21;101872.34;5001225;28;45503;-86
2022/09/22 08:11:16;;;;;;;;;51.50;41.50;;;;;14.33;55.15;101873.22;4991656;28;45263;-87
2022/09/22 08:13:47;;;;;;;;;33.75;31.25;;;;;14.38;54.62;101866.16;4989406;28;45168;-88
2022/09/22 08:16:12;;;;;;;;;30.75;27.75;;;;;14.47;54.90;101874.09;5000519;28;46697;-87
2022/09/22 08:18:38;;;;;;;;;26.50;25.50;;;;;14.52;54.54;101874.09;4988704;28;46021;-88
2022/09/22 08:21:05;;;;;;;;;24.25;23.50;;;;;14.61;54.33;101870.56;5001706;28;45298;-87
2022/09/22 08:23:32;;;;;;;;;31.75;26.75;;;;;14.68;53.69;101864.38;4984592;28;45524;-87
2022/09/22 08:26:06;;;;;;;;;25.75;23.25;;;;;14.77;53.51;101869.63;4985018;28;48038;-87
2022/09/22 08:28:32;;;;;;;;;25.25;24.25;;;;;14.86;53.37;101872.28;4991653;28;45294;-87
2022/09/22 08:30:58;;;;;;;;;30.25;25.75;;;;;14.94;53.29;101865.16;4996569;28;45528;-88
2022/09/22 08:33:25;;;;;;;;;27.50;25.00;;;;;15.04;53.09;101868.66;5001767;28;45219;-87
2022/09/22 08:35:52;;;;;;;;;21.00;20.00;;;;;15.10;52.73;101862.44;4998485;28;47240;-87
2022/09/22 08:38:18;;;;;;;;;18.75;18.75;;;;;15.20;52.06;101864.16;5004336;28;45489;-87
2022/09/22 08:40:54;;;;;;;;;21.75;20.50;;;;;15.27;51.47;101868.56;4996467;28;45408;-86
2022/09/22 08:43:20;;;;;;;;;21.25;19.75;;;;;15.39;51.13;101864.94;4992497;28;45524;-87
2022/09/22 08:45:46;;;;;;;;;17.25;17.25;;;;;15.47;50.91;101865.78;4990341;28;46983;-91
2022/09/22 08:53:56;;;;;;;;;19.25;18.75;;;;;15.77;50.31;101866.50;5002645;28;45408;-88
2022/09/22 08:56:57;;;;;;;;;15.00;14.00;;;;;15.90;50.15;101869.94;4992015;28;48027;-89
2022/09/22 08:59:34;;;;;;;;;20.00;17.00;;;;;15.99;49.46;101864.59;4964382;28;45392;-91
2022/09/22 09:02:34;;;;;;;;;19.75;18.75;;;;;16.12;49.40;101868.00;4986351;28;45243;-93
2022/09/22 09:05:00;;;;;;;;;20.25;18.25;;;;;16.20;49.15;101867.06;5002281;28;45495;-89
2022/09/22 09:07:32;;;;;;;;;28.00;26.25;;;;;16.29;49.29;101866.97;5018310;28;47187;-89
2022/09/22 09:10:20;;;;;;;;;23.25;21.25;;;;;16.35;49.12;101862.47;5001765;28;45365;-79
2022/09/22 09:13:06;;;;;;;;;28.50;26.25;;;;;16.44;49.12;101865.03;4981372;28;44585;-87
2022/09/22 09:15:42;;;;;;;;;25.75;23.00;;;;;16.47;48.80;101857.94;4978267;28;45230;-87
2022/09/22 09:18:14;;;;;;;;;28.00;25.75;;;;;16.57;48.37;101864.00;4984629;28;47165;-88
2022/09/22 09:20:48;;;;;;;;;24.25;22.50;;;;;16.64;48.23;101857.75;4985169;28;46219;-87
2022/09/22 09:23:30;;;;;;;;;21.50;19.00;;;;;16.68;48.25;101855.91;4983841;28;45381;-88
2022/09/22 09:25:57;;;;;;;;;23.00;21.00;;;;;16.77;47.89;101861.19;4982941;28;45491;-88
2022/09/22 09:28:45;;;;;;;;;22.25;19.75;;;;;16.85;47.83;101854.00;4973005;28;47098;-87
2022/09/22 09:31:31;;;;;;;;;19.00;17.50;;;;;16.93;47.43;101854.78;4997695;28;45434;-88
2022/09/22 09:34:01;;;;;;;;;15.75;14.75;;;;;17.04;47.41;101851.13;4996607;28;45278;-88
2022/09/22 09:36:41;;;;;;;;;17.50;17.50;;;;;17.12;46.88;101847.44;4983591;28;45833;-85
2022/09/22 09:39:14;;;;;;;;;16.50;15.50;;;;;17.24;47.24;101845.50;4980387;28;47793;-87
2022/09/22 09:41:45;;;;;;;;;16.50;14.50;;;;;17.31;46.55;101841.88;5002428;28;45521;-88
2022/09/22 09:44:17;;;;;;;;;16.50;13.00;;;;;17.41;46.46;101847.03;4986008;28;45263;-88
2022/09/22 09:47:05;;;;;;;;;15.50;14.50;;;;;17.50;45.86;101843.34;4983289;28;45508;-92
2022/09/22 09:49:31;;;;;;;;;16.25;15.50;;;;;17.56;45.51;101840.63;5001768;28;47731;-89
2022/09/22 09:52:00;;;;;;;;;14.75;11.00;;;;;17.70;45.18;101844.88;4985669;28;45454;-89
2022/09/22 09:54:27;;;;;;;;;12.25;11.25;;;;;17.78;45.47;101827.84;4983348;28;45325;-88
2022/09/22 09:57:18;;;;;;;;;12.50;11.50;;;;;17.92;44.76;101826.78;4979980;28;45616;-85
2022/09/22 10:03:04;;;;;;;;;11.75;9.00;;;;;18.18;43.60;101823.66;4980743;28;45242;-86
2022/09/22 10:05:36;;;;;;;;;11.00;8.50;;;;;18.27;43.59;101816.38;4985745;28;45301;-84
2022/09/22 10:08:23;;;;;;;;;7.75;6.50;;;;;18.44;42.42;101817.81;4990657;28;45745;-85
2022/09/22 10:11:02;;;;;;;;;9.75;7.00;;;;;18.55;42.42;101810.53;4970780;28;47581;-87
2022/09/22 10:13:32;;;;;;;;;6.25;6.00;;;;;18.64;41.48;101805.00;4961158;28;45493;-87
2022/09/22 10:16:19;;;;;;;;;16.50;12.00;;;;;18.77;41.82;101803.00;4958545;28;45655;-85
2022/09/22 10:18:45;;;;;;;;;10.25;9.25;;;;;18.85;41.06;101797.50;4970301;28;45684;-85
2022/09/22 10:21:17;;;;;;;;;5.00;5.00;;;;;18.98;40.51;101801.66;4968730;28;48349;-88
2022/09/22 10:23:45;;;;;;;;;7.25;7.25;;;;;19.13;40.55;101797.75;4955851;28;45319;-86
2022/09/22 10:26:17;;;;;;;;;8.75;8.25;;;;;19.26;40.03;101790.34;4966966;28;45386;-89
2022/09/22 10:28:46;;;;;;;;;6.50;4.50;;;;;19.46;40.07;101792.53;4955112;28;45644;-88
2022/09/22 10:31:23;;;;;;;;;6.50;6.00;;;;;19.64;39.74;101794.78;4965744;28;47088;-86
2022/09/22 10:33:56;;;;;;;;;5.75;5.75;;;;;19.83;39.45;101792.53;4966482;28;45356;-87
2022/09/22 10:36:27;;;;;;;;;4.33;4.00;;;;;19.96;38.88;101783.28;4965824;28;45517;-91
2022/09/22 10:38:54;;;;;;;;;4.00;4.00;;;;;20.11;38.23;101784.69;4961605;28;45338;-88
2022/09/22 10:41:26;;;;;;;;;3.25;3.25;;;;;20.27;38.01;101779.81;4951735;28;47946;-91
2022/09/22 10:44:00;;;;;;;;;4.25;4.00;;;;;20.42;37.55;101775.81;4960136;28;45621;-89
2022/09/22 10:47:05;;;;;;;;;7.00;5.00;;;;;20.56;37.08;101768.34;4960244;28;45352;-90
2022/09/22 10:49:52;;;;;;;;;6.25;5.50;;;;;20.74;36.67;101766.03;4944701;28;45470;-91
2022/09/22 10:52:35;;;;;;;;;39.75;32.50;;;;;20.88;36.34;101762.03;4943356;28;47538;-88
2022/09/22 10:55:39;;;;;;;;;5.00;4.25;;;;;21.06;35.95;101763.28;4960348;28;45555;-90
2022/09/22 10:58:07;;;;;;;;;5.25;4.50;;;;;21.24;35.68;101764.47;4945568;28;45333;-91
2022/09/22 11:00:41;;;;;;;;;2.00;2.00;;;;;21.42;35.30;101762.16;4946030;28;45547;-88
2022/09/22 11:03:32;;;;;;;;;3.00;2.00;;;;;21.57;35.24;101758.97;4962329;28;47820;-92
2022/09/22 11:12:27;;;;;;;;;11.50;10.50;;;;;21.92;33.52;101749.75;5001813;28;45308;-90
2022/09/22 11:15:25;;;;;;;;;15.50;13.50;;;;;21.95;33.33;101746.06;5002900;28;45439;-88
2022/09/22 11:18:20;;;;;;;;;17.75;17.00;;;;;21.99;33.18;101747.72;4987441;28;45351;-93
2022/09/22 11:21:26;;;;;;;;;14.25;12.75;;;;;22.10;33.29;101739.28;4983437;28;45412;-92
2022/09/22 11:24:05;;;;;;;;;17.50;14.00;;;;;22.23;32.89;101733.44;4956356;28;45400;-91
2022/09/22 11:26:36;;;;;;;;;15.25;15.25;;;;;22.41;32.79;101734.56;5016013;28;47273;-89
2022/09/22 11:29:08;;;;;;;;;6.00;6.00;;;;;22.66;33.04;101739.88;5014837;28;44804;-90
2022/09/22 11:32:13;;;;;;;;;4.00;4.00;;;;;22.83;32.52;101735.69;5011626;28;45499;-90
2022/09/22 11:35:12;;;;;;;;;2.33;2.33;;;;;22.98;31.73;101727.03;5005048;28;45500;-89
2022/09/22 11:38:12;;;;;;;;;5.67;4.00;;;;;23.13;31.68;101725.56;5005699;28;45466;-88
2022/09/22 11:41:00;;;;;;;;;4.67;4.67;;;;;23.24;31.60;101733.19;4993037;28;45417;-81
2022/09/22 11:43:48;;;;;;;;;3.00;3.00;;;;;23.45;32.03;101731.44;5001061;28;45493;-80
2022/09/22 11:46:35;;;;;;;;;3.00;3.00;;;;;23.68;30.92;101725.06;5000954;28;45504;-79
2022/09/22 11:49:15;;;;;;;;;5.00;4.00;;;;;23.84;30.91;101719.94;5001402;28;45405;-81
2022/09/22 11:51:41;;;;;;;;;3.00;3.00;;;;;24.05;30.67;101718.97;5001970;28;45424;-82
2022/09/22 11:54:35;;;;;;;;;4.00;3.00;;;;;24.24;30.06;101716.34;5001731;28;45296;-82
2022/09/22 11:57:41;;;;;;;;;;;;;;;;;;;;;
2022/09/22 12:00:21;;;;;;;;;2.00;2.00;;;;;24.57;29.44;101705.00;5017704;28;74374;-86